Time;durP1;ratioP1;P1;durP2;ratioP2;P2;SDS_P1;SDS_P2;PMS_P1;PMS_P2;Temp;Humidity;BMP_temperature;BMP_pressure;BME280_temperature;BME280_humidity;BME280_pressure;Samples;Min_cycle;Max_cycle;Signal;HPM_P1;HPM_P2
2021/07/31 00:01:35;;;;;;;5.97;2.63;;;15.40;99.90;;;;;;5003639;28;20241;-87
2021/07/31 00:04:01;;;;;;;2.17;1.87;;;15.40;99.90;;;;;;4986797;28;20217;-89
2021/07/31 00:06:27;;;;;;;4.10;2.50;;;15.40;99.90;;;;;;4985765;28;20218;-87
2021/07/31 00:08:53;;;;;;;2.60;1.90;;;15.40;99.90;;;;;;5020396;28;21032;-87
2021/07/31 00:11:18;;;;;;;3.27;2.10;;;15.30;99.90;;;;;;4985613;28;20706;-85
2021/07/31 00:13:44;;;;;;;2.77;2.37;;;15.30;99.90;;;;;;5004328;28;20191;-88
2021/07/31 00:16:10;;;;;;;4.80;3.67;;;15.40;99.90;;;;;;4985225;28;20285;-85
2021/07/31 00:18:36;;;;;;;6.50;2.60;;;15.40;99.90;;;;;;4984288;28;21102;-87
2021/07/31 00:21:01;;;;;;;4.70;2.87;;;15.40;99.90;;;;;;4981911;28;21350;-90
2021/07/31 00:23:27;;;;;;;5.27;3.63;;;15.40;99.90;;;;;;4981970;28;20805;-86
2021/07/31 00:25:54;;;;;;;4.70;2.40;;;15.50;99.90;;;;;;5000664;28;20198;-85
2021/07/31 00:28:21;;;;;;;3.33;3.03;;;15.60;99.90;;;;;;5018846;28;20217;-89
2021/07/31 00:30:46;;;;;;;6.60;2.83;;;15.60;99.90;;;;;;4990573;28;20312;-86
2021/07/31 00:33:12;;;;;;;9.33;3.33;;;15.60;99.90;;;;;;5006363;28;20313;-85
2021/07/31 00:35:38;;;;;;;3.17;2.87;;;15.60;99.90;;;;;;4997706;28;20218;-87
2021/07/31 00:38:04;;;;;;;7.67;3.50;;;15.70;99.90;;;;;;5006355;28;21024;-92
2021/07/31 00:40:30;;;;;;;10.00;4.13;;;15.70;99.90;;;;;;5006781;28;20214;-91
2021/07/31 00:42:56;;;;;;;10.87;3.07;;;15.70;99.90;;;;;;4989660;28;20218;-86
2021/07/31 00:45:22;;;;;;;6.27;3.40;;;15.80;99.90;;;;;;5023510;28;20279;-86
2021/07/31 00:47:48;;;;;;;3.97;2.73;;;15.80;99.90;;;;;;4989227;28;20226;-86
2021/07/31 00:50:15;;;;;;;4.27;2.70;;;15.70;99.90;;;;;;4988219;28;20305;-86
2021/07/31 00:52:42;;;;;;;4.33;3.17;;;15.70;99.90;;;;;;5005750;28;20244;-86
2021/07/31 00:55:11;;;;;;;5.57;2.57;;;15.70;99.90;;;;;;5004155;28;20234;-87
2021/07/31 00:57:39;;;;;;;4.27;3.13;;;15.70;99.90;;;;;;4998302;28;20222;-86
2021/07/31 01:00:05;;;;;;;4.47;3.10;;;15.70;99.90;;;;;;5015830;28;20313;-89
2021/07/31 01:02:31;;;;;;;7.57;3.23;;;15.80;99.90;;;;;;5005149;28;20218;-87
2021/07/31 01:04:57;;;;;;;4.53;2.50;;;15.80;99.90;;;;;;5005489;28;20316;-87
2021/07/31 01:07:23;;;;;;;11.77;3.23;;;15.80;99.90;;;;;;4987789;28;20222;-87
2021/07/31 01:09:50;;;;;;;5.63;2.60;;;15.80;99.90;;;;;;4989402;28;20206;-89
2021/07/31 01:12:16;;;;;;;3.67;2.37;;;15.90;99.90;;;;;;4989080;28;20370;-86
2021/07/31 01:14:42;;;;;;;3.17;2.63;;;15.90;99.90;;;;;;5023672;28;20223;-86
2021/07/31 01:17:11;;;;;;;3.80;3.00;;;15.90;99.90;;;;;;4988672;28;20630;-89
2021/07/31 01:19:38;;;;;;;4.10;2.80;;;15.90;99.90;;;;;;4990605;28;20664;-89
2021/07/31 01:22:04;;;;;;;5.50;3.07;;;16.00;99.90;;;;;;5004949;28;20700;-87
2021/07/31 01:24:29;;;;;;;5.07;2.03;;;15.90;99.90;;;;;;5004631;28;20301;-86
2021/07/31 01:26:55;;;;;;;3.53;2.30;;;16.00;99.90;;;;;;4988164;28;20229;-89
2021/07/31 01:29:21;;;;;;;7.03;2.87;;;16.00;99.90;;;;;;4989307;28;21296;-87
2021/07/31 01:31:47;;;;;;;7.57;2.57;;;16.00;99.90;;;;;;4989575;28;20227;-89
2021/07/31 01:34:13;;;;;;;2.70;1.97;;;16.00;99.90;;;;;;4989012;28;20218;-88
2021/07/31 01:36:39;;;;;;;3.40;2.17;;;16.10;99.90;;;;;;5005728;28;20281;-88
2021/07/31 01:39:05;;;;;;;5.87;2.10;;;16.10;99.90;;;;;;5004377;28;21254;-86
2021/07/31 01:41:31;;;;;;;10.63;2.40;;;16.10;99.90;;;;;;4980193;28;20218;-86
2021/07/31 01:43:57;;;;;;;4.80;2.37;;;16.10;99.90;;;;;;5005279;28;20859;-85
2021/07/31 01:46:23;;;;;;;7.00;3.33;;;16.10;99.90;;;;;;5005366;28;20352;-87
2021/07/31 01:48:49;;;;;;;9.47;3.37;;;16.10;99.90;;;;;;5000229;28;20218;-91
2021/07/31 01:51:16;;;;;;;4.43;2.90;;;16.10;99.90;;;;;;5016677;28;20242;-89
2021/07/31 01:53:42;;;;;;;3.07;1.67;;;16.10;99.90;;;;;;4999276;28;20218;-85
2021/07/31 01:56:08;;;;;;;9.43;2.60;;;16.20;99.90;;;;;;4998572;28;20234;-90
2021/07/31 01:58:33;;;;;;;4.87;1.97;;;16.20;99.90;;;;;;5000558;28;20217;-89
2021/07/31 02:01:00;;;;;;;3.00;1.80;;;16.20;99.90;;;;;;5001444;28;20310;-86
2021/07/31 02:03:26;;;;;;;2.20;2.00;;;16.20;99.90;;;;;;5020239;28;20215;-87
2021/07/31 02:05:52;;;;;;;4.37;1.70;;;16.30;99.90;;;;;;5005034;28;20279;-87
2021/07/31 02:08:18;;;;;;;2.30;1.43;;;16.30;99.90;;;;;;5009015;28;20227;-88
2021/07/31 02:10:44;;;;;;;2.90;1.53;;;16.30;99.90;;;;;;5004763;28;21345;-89
2021/07/31 02:13:11;;;;;;;3.40;2.50;;;16.20;99.90;;;;;;5004494;28;20218;-88
2021/07/31 02:15:44;;;;;;;9.47;2.17;;;16.20;99.90;;;;;;5022967;28;20242;-88
2021/07/31 02:18:10;;;;;;;5.90;2.37;;;16.10;99.90;;;;;;5003520;28;20226;-88
2021/07/31 02:20:37;;;;;;;2.80;1.47;;;16.10;99.90;;;;;;5004574;28;20245;-85
2021/07/31 02:23:03;;;;;;;4.10;1.77;;;16.10;99.90;;;;;;5003559;28;20221;-86
2021/07/31 02:25:29;;;;;;;6.60;2.10;;;16.10;99.90;;;;;;5004676;28;20727;-88
2021/07/31 02:27:55;;;;;;;3.50;1.93;;;16.10;99.90;;;;;;5003965;28;20222;-87
2021/07/31 02:30:21;;;;;;;6.37;2.27;;;16.10;99.90;;;;;;5013203;28;20228;-87
2021/07/31 02:32:47;;;;;;;5.27;2.10;;;16.10;99.90;;;;;;5003616;28;20222;-88
2021/07/31 02:35:13;;;;;;;3.53;1.80;;;16.10;99.90;;;;;;4987346;28;20631;-88
2021/07/31 02:37:39;;;;;;;3.53;1.23;;;16.10;99.90;;;;;;5004827;28;20188;-90
2021/07/31 02:40:05;;;;;;;5.10;1.33;;;16.10;99.90;;;;;;5003323;28;20691;-88
2021/07/31 02:42:31;;;;;;;2.93;1.27;;;16.00;99.90;;;;;;5013307;28;20794;-91
2021/07/31 02:44:59;;;;;;;1.57;1.03;;;16.00;99.90;;;;;;5004530;28;20317;-86
2021/07/31 02:47:25;;;;;;;1.23;1.10;;;16.00;99.90;;;;;;5021755;28;20225;-88
2021/07/31 02:49:51;;;;;;;8.57;2.53;;;15.90;99.90;;;;;;5004911;28;20187;-87
2021/07/31 02:52:17;;;;;;;3.30;1.90;;;16.00;99.90;;;;;;4986796;28;20210;-85
2021/07/31 02:54:43;;;;;;;5.70;1.67;;;16.00;99.90;;;;;;5003527;28;20230;-86
2021/07/31 02:57:09;;;;;;;5.73;1.37;;;16.00;99.90;;;;;;5003859;28;20268;-86
2021/07/31 02:59:35;;;;;;;3.93;2.00;;;16.00;99.90;;;;;;4987577;28;20301;-86
2021/07/31 03:02:00;;;;;;;2.10;1.47;;;16.00;99.90;;;;;;5003853;28;20203;-89
2021/07/31 03:04:26;;;;;;;4.70;1.53;;;16.00;99.90;;;;;;4987318;28;20222;-87
2021/07/31 03:06:52;;;;;;;7.00;1.57;;;16.00;99.90;;;;;;4986782;28;20223;-85
2021/07/31 03:09:17;;;;;;;11.80;1.80;;;16.00;99.90;;;;;;5002218;28;20223;-87
2021/07/31 03:11:43;;;;;;;4.47;1.77;;;16.00;99.90;;;;;;4986679;28;20230;-87
2021/07/31 03:14:09;;;;;;;3.53;1.63;;;16.00;99.90;;;;;;4986316;28;20206;-90
2021/07/31 03:16:35;;;;;;;6.87;3.27;;;16.00;99.90;;;;;;5020492;28;20292;-86
2021/07/31 03:19:00;;;;;;;6.07;1.67;;;16.00;99.90;;;;;;5002067;28;20314;-88
2021/07/31 03:21:26;;;;;;;9.63;2.00;;;15.90;99.90;;;;;;4987579;28;20252;-87
2021/07/31 03:23:52;;;;;;;4.67;2.03;;;15.90;99.90;;;;;;4986455;28;20230;-88
2021/07/31 03:26:18;;;;;;;4.87;1.57;;;15.90;99.90;;;;;;4986006;28;20221;-87
2021/07/31 03:28:43;;;;;;;2.03;1.80;;;15.90;99.90;;;;;;4987829;28;20191;-87
2021/07/31 03:31:16;;;;;;;3.53;2.17;;;15.90;99.90;;;;;;5003343;28;20913;-89
2021/07/31 03:33:42;;;;;;;18.87;2.70;;;15.90;99.90;;;;;;4986958;28;20222;-86
2021/07/31 03:36:08;;;;;;;5.87;1.57;;;15.90;99.90;;;;;;5002785;28;21282;-86
2021/07/31 03:38:33;;;;;;;3.43;2.50;;;15.90;99.90;;;;;;4986148;28;20219;-84
2021/07/31 03:40:59;;;;;;;9.40;1.97;;;16.00;99.90;;;;;;4987697;28;20186;-86
2021/07/31 03:43:25;;;;;;;9.13;1.07;;;16.00;99.90;;;;;;5003012;28;20230;-88
2021/07/31 03:45:51;;;;;;;2.23;1.53;;;16.00;99.90;;;;;;5001122;28;20676;-86
2021/07/31 03:48:16;;;;;;;4.50;1.87;;;16.00;99.90;;;;;;4994196;28;20217;-90
2021/07/31 03:50:42;;;;;;;6.30;2.10;;;16.00;99.90;;;;;;4984700;28;20232;-85
2021/07/31 03:53:08;;;;;;;3.40;1.43;;;16.00;99.90;;;;;;5003773;28;20236;-91
2021/07/31 03:55:33;;;;;;;4.93;1.73;;;16.00;99.90;;;;;;4983488;28;20219;-86
2021/07/31 03:58:00;;;;;;;1.63;1.10;;;16.00;99.90;;;;;;4983602;28;20948;-89
2021/07/31 04:00:26;;;;;;;6.63;1.80;;;16.00;99.90;;;;;;4975935;28;20230;-86
2021/07/31 04:02:52;;;;;;;6.97;2.10;;;16.00;99.90;;;;;;4984357;28;20238;-86
2021/07/31 04:05:18;;;;;;;6.90;2.10;;;16.10;99.90;;;;;;4981056;28;21115;-91
2021/07/31 04:07:43;;;;;;;3.60;1.80;;;16.10;99.90;;;;;;4989195;28;20191;-86
2021/07/31 04:10:10;;;;;;;4.03;1.97;;;16.10;99.90;;;;;;4987366;28;20711;-88
2021/07/31 04:12:35;;;;;;;2.40;1.47;;;16.20;99.90;;;;;;4987926;28;20239;-87
2021/07/31 04:15:01;;;;;;;5.27;2.40;;;16.20;99.90;;;;;;5005129;28;20219;-86
2021/07/31 04:17:27;;;;;;;14.57;2.67;;;16.30;99.90;;;;;;5002622;28;21002;-86
2021/07/31 04:19:53;;;;;;;6.53;1.50;;;16.30;99.90;;;;;;5003798;28;20641;-87
2021/07/31 04:22:19;;;;;;;5.43;2.03;;;16.30;99.90;;;;;;4986184;28;20684;-88
2021/07/31 04:24:44;;;;;;;7.73;2.47;;;16.30;99.90;;;;;;4986712;28;20223;-89
2021/07/31 04:27:10;;;;;;;5.43;2.00;;;16.30;99.90;;;;;;4984360;28;20700;-87
2021/07/31 04:29:36;;;;;;;9.30;2.00;;;16.30;99.90;;;;;;4982875;28;20718;-91
2021/07/31 04:32:02;;;;;;;1.37;1.27;;;16.30;99.90;;;;;;4984376;28;20302;-91
2021/07/31 04:34:29;;;;;;;3.27;2.07;;;16.20;99.90;;;;;;4986036;28;20241;-88
2021/07/31 04:36:55;;;;;;;9.90;2.13;;;16.20;99.90;;;;;;5004195;28;20337;-89
2021/07/31 04:39:21;;;;;;;3.50;2.40;;;16.20;99.90;;;;;;4986478;28;20226;-89
2021/07/31 04:41:47;;;;;;;11.77;2.63;;;16.20;99.90;;;;;;4987211;28;20561;-90
2021/07/31 04:44:13;;;;;;;2.03;1.33;;;16.20;99.90;;;;;;4986789;28;20199;-87
2021/07/31 04:46:38;;;;;;;2.47;1.77;;;16.30;99.90;;;;;;4987050;28;20992;-87
2021/07/31 04:49:04;;;;;;;1.70;1.60;;;16.20;99.90;;;;;;4986670;28;20977;-85
2021/07/31 04:51:30;;;;;;;4.20;1.90;;;16.30;99.90;;;;;;4986262;28;20321;-86
2021/07/31 04:53:56;;;;;;;11.63;2.13;;;16.30;99.90;;;;;;4986847;28;20215;-88
2021/07/31 04:56:21;;;;;;;5.83;1.77;;;16.30;99.90;;;;;;4986557;28;20246;-87
2021/07/31 04:58:47;;;;;;;6.83;1.30;;;16.30;99.90;;;;;;4997126;28;20206;-88
2021/07/31 05:01:13;;;;;;;6.17;1.47;;;16.40;99.90;;;;;;5003104;28;20234;-90
2021/07/31 05:03:38;;;;;;;4.53;1.13;;;16.30;99.90;;;;;;4986705;28;20876;-89
2021/07/31 05:06:08;;;;;;;2.40;1.10;;;16.20;99.90;;;;;;4986744;28;20235;-90
2021/07/31 05:08:34;;;;;;;7.13;1.97;;;16.30;99.90;;;;;;5002591;28;20234;-89
2021/07/31 05:11:06;;;;;;;4.63;2.47;;;16.30;99.90;;;;;;4986263;28;20211;-87
2021/07/31 05:13:32;;;;;;;7.53;1.57;;;16.40;99.90;;;;;;5002147;28;20732;-92
2021/07/31 05:15:57;;;;;;;1.07;0.90;;;16.50;99.90;;;;;;5002525;28;20215;-88
2021/07/31 05:18:23;;;;;;;8.43;1.97;;;16.60;99.90;;;;;;5003127;28;20496;-89
2021/07/31 05:20:49;;;;;;;1.87;1.47;;;16.50;99.90;;;;;;5003096;28;20599;-91
2021/07/31 05:23:15;;;;;;;6.30;1.70;;;16.50;99.90;;;;;;4986068;28;20686;-87
2021/07/31 05:25:43;;;;;;;6.10;1.23;;;16.50;99.90;;;;;;5002568;28;20346;-88
2021/07/31 05:28:10;;;;;;;8.57;2.13;;;16.60;99.90;;;;;;4986093;28;20219;-88
2021/07/31 05:30:40;;;;;;;5.50;1.77;;;16.60;99.90;;;;;;5000818;28;20230;-86
2021/07/31 05:33:06;;;;;;;2.73;1.60;;;16.70;99.90;;;;;;5002403;28;20227;-87
2021/07/31 05:35:32;;;;;;;2.57;0.70;;;16.70;99.90;;;;;;5002586;28;20985;-89
2021/07/31 05:37:58;;;;;;;4.40;1.40;;;16.70;99.90;;;;;;5002581;28;20211;-89
2021/07/31 05:40:24;;;;;;;2.43;1.77;;;16.80;99.90;;;;;;5001164;28;20305;-89
2021/07/31 05:42:49;;;;;;;6.60;1.30;;;17.10;99.90;;;;;;5002332;28;20215;-92
2021/07/31 05:45:15;;;;;;;4.07;1.10;;;17.00;99.90;;;;;;5002544;28;20305;-87
2021/07/31 05:47:41;;;;;;;7.83;1.40;;;16.90;99.90;;;;;;4981099;28;20277;-90
2021/07/31 05:50:08;;;;;;;2.37;1.10;;;16.80;99.90;;;;;;4978063;28;20666;-87
2021/07/31 05:52:35;;;;;;;1.50;0.53;;;16.90;99.90;;;;;;4981944;28;20314;-92
2021/07/31 05:55:02;;;;;;;4.47;1.43;;;17.00;99.90;;;;;;5003550;28;20250;-91
2021/07/31 05:57:28;;;;;;;1.63;1.10;;;17.10;99.90;;;;;;4987799;28;20218;-92
2021/07/31 05:59:54;;;;;;;1.67;0.70;;;17.10;99.90;;;;;;4986175;28;20221;-91
2021/07/31 06:02:20;;;;;;;2.33;0.93;;;17.00;99.90;;;;;;5003603;28;20226;-92
2021/07/31 06:04:45;;;;;;;2.53;1.43;;;17.00;99.90;;;;;;4996646;28;20244;-88
2021/07/31 06:07:11;;;;;;;4.43;1.20;;;17.10;99.90;;;;;;5002692;28;20222;-90
2021/07/31 06:09:38;;;;;;;1.07;1.07;;;17.10;99.90;;;;;;4988527;28;20249;-93
2021/07/31 06:12:05;;;;;;;2.20;1.10;;;17.00;99.90;;;;;;5004561;28;20238;-94
2021/07/31 06:14:33;;;;;;;3.30;1.13;;;17.00;99.90;;;;;;5003881;28;20242;-92
2021/07/31 06:16:59;;;;;;;0.90;0.70;;;17.40;99.90;;;;;;5004970;28;20263;-90
2021/07/31 06:19:27;;;;;;;2.30;1.00;;;18.10;99.90;;;;;;5004084;28;20226;-91
2021/07/31 06:21:53;;;;;;;0.80;0.80;;;19.00;99.90;;;;;;5003912;28;20225;-93
2021/07/31 06:24:18;;;;;;;3.53;0.80;;;19.90;99.90;;;;;;4986604;28;20381;-91
2021/07/31 06:26:44;;;;;;;1.97;0.83;;;20.10;99.90;;;;;;4998356;28;20207;-91
2021/07/31 06:29:10;;;;;;;1.40;0.50;;;19.20;99.90;;;;;;4985367;28;20199;-90
2021/07/31 06:31:36;;;;;;;3.60;1.07;;;18.50;99.90;;;;;;5003632;28;20221;-90
2021/07/31 06:34:01;;;;;;;1.07;0.83;;;18.00;99.90;;;;;;5020978;28;20214;-94
2021/07/31 06:36:27;;;;;;;4.37;1.90;;;17.90;99.90;;;;;;5020699;28;20690;-90
2021/07/31 06:38:53;;;;;;;1.70;0.73;;;18.10;99.90;;;;;;5021726;28;20214;-93
2021/07/31 06:41:19;;;;;;;1.43;0.90;;;18.40;99.90;;;;;;5021831;28;20198;-91
2021/07/31 06:43:44;;;;;;;3.30;0.93;;;18.30;99.90;;;;;;4988893;28;20348;-91
2021/07/31 06:46:14;;;;;;;2.47;1.37;;;18.00;99.90;;;;;;5000363;28;20229;-91
2021/07/31 06:48:40;;;;;;;3.73;1.00;;;17.80;99.90;;;;;;5017385;28;20297;-91
2021/07/31 06:51:07;;;;;;;0.60;0.60;;;17.80;99.90;;;;;;4998964;28;20273;-91
2021/07/31 06:53:33;;;;;;;3.40;0.70;;;17.90;99.90;;;;;;4982836;28;20214;-94
2021/07/31 06:56:00;;;;;;;0.83;0.83;;;17.80;99.90;;;;;;4983874;28;20261;-94
2021/07/31 06:58:26;;;;;;;1.83;0.90;;;17.80;99.90;;;;;;4999125;28;20215;-94
2021/07/31 07:00:52;;;;;;;0.57;0.57;;;17.80;99.90;;;;;;5017881;28;20218;-91
2021/07/31 07:03:18;;;;;;;2.53;1.07;;;17.40;99.90;;;;;;5001674;28;20222;-92
2021/07/31 07:05:44;;;;;;;1.80;0.87;;;17.10;99.90;;;;;;5000326;28;20214;-92
2021/07/31 07:08:11;;;;;;;2.40;0.70;;;16.80;99.90;;;;;;5017095;28;20182;-91
2021/07/31 07:10:37;;;;;;;1.10;1.10;;;16.80;99.90;;;;;;5000459;28;20757;-89
2021/07/31 07:13:03;;;;;;;4.10;0.83;;;16.90;99.90;;;;;;5000143;28;20245;-91
2021/07/31 07:15:29;;;;;;;0.87;0.43;;;16.90;99.90;;;;;;5018778;28;20222;-91
2021/07/31 07:17:55;;;;;;;4.13;0.97;;;17.20;99.90;;;;;;5001186;28;20222;-93
2021/07/31 07:20:22;;;;;;;1.87;1.03;;;17.50;99.90;;;;;;4984853;28;20292;-93
2021/07/31 07:22:48;;;;;;;2.67;0.73;;;17.70;99.90;;;;;;4985895;28;20198;-92
2021/07/31 07:25:13;;;;;;;5.30;1.97;;;19.00;99.90;;;;;;5001070;28;20580;-93
2021/07/31 07:27:39;;;;;;;1.23;0.80;;;20.00;99.90;;;;;;5017517;28;20314;-92
2021/07/31 07:30:06;;;;;;;1.23;0.90;;;20.80;99.90;;;;;;4985498;28;20221;-93
2021/07/31 07:32:34;;;;;;;0.97;0.90;;;21.50;99.90;;;;;;4984049;28;20237;-93
2021/07/31 07:35:00;;;;;;;1.73;1.00;;;21.40;99.90;;;;;;5002367;28;20206;-89
2021/07/31 07:37:26;;;;;;;0.93;0.83;;;20.70;99.90;;;;;;5002049;28;20202;-91
2021/07/31 07:39:52;;;;;;;4.13;1.30;;;19.70;99.90;;;;;;5020315;28;20230;-94
2021/07/31 07:42:18;;;;;;;4.00;1.00;;;20.10;99.90;;;;;;5002158;28;20297;-94
2021/07/31 07:44:44;;;;;;;1.10;0.70;;;21.00;99.90;;;;;;5002817;28;20222;-92
2021/07/31 07:47:10;;;;;;;2.93;1.07;;;21.70;99.90;;;;;;4984762;28;20703;-90
2021/07/31 07:49:36;;;;;;;2.03;0.70;;;22.00;99.90;;;;;;5003555;28;20318;-94
2021/07/31 07:52:03;;;;;;;1.40;0.90;;;21.20;99.90;;;;;;5002054;28;20235;-92
2021/07/31 07:54:29;;;;;;;3.50;0.90;;;22.00;99.90;;;;;;5002484;28;20427;-92
2021/07/31 07:56:59;;;;;;;1.30;1.00;;;22.10;99.90;;;;;;4986535;28;20238;-91
2021/07/31 07:59:25;;;;;;;1.90;1.23;;;22.40;99.90;;;;;;5002294;28;20226;-94
2021/07/31 08:01:51;;;;;;;0.40;0.40;;;21.30;99.90;;;;;;5002044;28;20240;-91
2021/07/31 08:04:17;;;;;;;3.43;0.80;;;21.00;99.90;;;;;;5001551;28;20224;-91
2021/07/31 08:06:43;;;;;;;3.77;0.97;;;20.50;99.90;;;;;;5018048;28;20225;-92
2021/07/31 08:09:09;;;;;;;3.83;1.30;;;19.80;99.90;;;;;;4986464;28;20218;-91
2021/07/31 08:11:34;;;;;;;3.33;1.20;;;19.20;99.90;;;;;;4986039;28;20309;-88
2021/07/31 08:14:01;;;;;;;4.80;1.17;;;18.90;99.90;;;;;;4985496;28;20186;-89
2021/07/31 08:16:27;;;;;;;4.33;2.03;;;18.70;99.90;;;;;;5020856;28;20664;-92
2021/07/31 08:18:53;;;;;;;1.50;0.83;;;18.70;99.90;;;;;;5002172;28;20712;-89
2021/07/31 08:21:19;;;;;;;3.63;1.30;;;18.60;99.90;;;;;;5001787;28;20237;-89
2021/07/31 08:23:45;;;;;;;1.83;1.63;;;18.80;99.90;;;;;;5000238;28;20301;-90
2021/07/31 08:26:15;;;;;;;1.03;0.70;;;18.70;99.90;;;;;;5003459;28;20195;-91
2021/07/31 08:28:44;;;;;;;2.00;1.30;;;18.60;99.90;;;;;;4985767;28;20629;-89
2021/07/31 08:31:12;;;;;;;4.60;1.87;;;18.70;99.90;;;;;;4986307;28;20233;-89
2021/07/31 08:33:38;;;;;;;5.30;1.70;;;18.60;99.90;;;;;;5017289;28;20226;-92
2021/07/31 08:36:06;;;;;;;3.30;0.87;;;18.50;99.90;;;;;;5001421;28;20815;-93
2021/07/31 08:38:32;;;;;;;1.67;0.93;;;18.40;99.90;;;;;;5018015;28;20245;-91
2021/07/31 08:40:59;;;;;;;2.10;1.20;;;18.40;99.90;;;;;;5002477;28;20284;-90
2021/07/31 08:43:25;;;;;;;1.43;0.70;;;18.40;99.90;;;;;;4983427;28;20249;-92
2021/07/31 08:45:51;;;;;;;0.77;0.77;;;18.30;99.90;;;;;;5007846;28;20214;-92
2021/07/31 08:48:20;;;;;;;3.40;1.40;;;18.20;99.90;;;;;;4986187;28;20254;-94
2021/07/31 08:50:49;;;;;;;2.30;0.60;;;18.30;99.90;;;;;;5022496;28;20241;-94
2021/07/31 08:53:14;;;;;;;9.20;2.03;;;18.30;99.90;;;;;;5018231;28;20186;-92
2021/07/31 08:55:43;;;;;;;3.00;1.87;;;18.40;99.90;;;;;;5002860;28;20231;-94
2021/07/31 08:58:10;;;;;;;1.37;1.27;;;18.50;99.90;;;;;;4986775;28;20258;-93
2021/07/31 09:00:35;;;;;;;4.10;1.37;;;18.60;99.90;;;;;;4987056;28;20226;-94
2021/07/31 09:03:04;;;;;;;2.47;1.40;;;18.80;99.90;;;;;;5003309;28;20226;-95
2021/07/31 09:05:36;;;;;;;5.83;1.20;;;18.90;99.90;;;;;;5004744;28;20223;-93
2021/07/31 09:08:06;;;;;;;2.77;1.40;;;19.00;99.90;;;;;;5000601;28;20198;-93
2021/07/31 09:10:38;;;;;;;2.67;1.27;;;18.80;99.90;;;;;;5002954;28;20229;-93
2021/07/31 09:13:15;;;;;;;2.23;1.10;;;18.70;99.90;;;;;;5002541;28;20218;-93
2021/07/31 09:15:46;;;;;;;2.43;1.10;;;18.80;99.90;;;;;;5001106;28;20215;-91
2021/07/31 09:18:34;;;;;;;1.67;1.43;;;18.70;99.90;;;;;;5019233;28;20319;-91
2021/07/31 09:21:05;;;;;;;3.77;1.47;;;18.80;99.90;;;;;;4988056;28;20217;-94
2021/07/31 09:23:48;;;;;;;2.97;1.57;;;18.70;99.90;;;;;;5003379;28;20221;-96
2021/07/31 09:26:16;;;;;;;3.40;2.37;;;18.70;99.90;;;;;;5003400;28;20260;-95
2021/07/31 09:28:43;;;;;;;6.03;1.60;;;18.90;99.90;;;;;;5005818;28;20175;-95
2021/07/31 09:31:17;;;;;;;1.17;1.07;;;19.10;99.90;;;;;;5015396;28;20230;-94
2021/07/31 09:33:49;;;;;;;2.70;1.80;;;19.30;99.90;;;;;;5021444;28;20341;-93
2021/07/31 09:36:15;;;;;;;1.20;1.10;;;19.40;99.90;;;;;;5022744;28;20249;-93
2021/07/31 09:38:44;;;;;;;7.73;1.60;;;19.80;99.90;;;;;;5021677;28;20758;-95
2021/07/31 09:41:24;;;;;;;1.60;1.40;;;20.10;99.90;;;;;;5005957;28;20192;-93
2021/07/31 09:44:15;;;;;;;3.90;1.70;;;20.50;99.90;;;;;;5022217;28;20622;-94
2021/07/31 09:46:44;;;;;;;2.53;1.70;;;21.10;99.90;;;;;;5012940;28;20246;-91
2021/07/31 09:49:13;;;;;;;5.23;1.80;;;21.30;99.90;;;;;;5004329;28;20227;-92
2021/07/31 09:51:45;;;;;;;4.93;1.93;;;20.70;99.90;;;;;;5004553;28;20568;-94
2021/07/31 09:54:15;;;;;;;3.83;1.77;;;20.90;99.90;;;;;;5004321;28;20920;-95
2021/07/31 09:56:46;;;;;;;2.73;1.37;;;21.00;99.90;;;;;;5001672;28;20629;-93
2021/07/31 09:59:14;;;;;;;5.23;1.80;;;21.50;99.90;;;;;;5000913;28;20187;-91
2021/07/31 10:01:43;;;;;;;1.40;1.00;;;21.20;99.90;;;;;;5003117;28;20184;-94
2021/07/31 10:04:09;;;;;;;4.03;1.90;;;20.60;99.90;;;;;;5000351;28;20220;-93
2021/07/31 10:06:36;;;;;;;10.27;2.83;;;20.60;99.90;;;;;;4999600;28;20222;-93
2021/07/31 10:09:06;;;;;;;3.17;1.80;;;21.10;99.90;;;;;;4999155;28;20219;-94
2021/07/31 10:11:40;;;;;;;3.47;2.30;;;20.60;99.90;;;;;;4985345;28;21383;-95
2021/07/31 10:14:10;;;;;;;6.60;2.10;;;20.60;99.90;;;;;;5006480;28;20195;-92
2021/07/31 10:16:45;;;;;;;5.57;2.13;;;20.20;99.90;;;;;;5004497;28;20640;-93
2021/07/31 10:19:12;;;;;;;3.20;2.27;;;20.40;99.90;;;;;;4999759;28;20548;-93
2021/07/31 10:21:52;;;;;;;3.97;1.87;;;20.80;99.90;;;;;;4982471;28;20227;-94
2021/07/31 10:24:19;;;;;;;1.17;1.07;;;21.60;99.90;;;;;;5000266;28;20251;-91
2021/07/31 10:27:15;;;;;;;3.47;1.47;;;21.40;99.90;;;;;;4982954;28;20215;-96
2021/07/31 10:29:46;;;;;;;5.43;2.73;;;21.00;99.90;;;;;;5001198;28;20224;-93
2021/07/31 10:32:32;;;;;;;4.23;1.80;;;21.10;99.90;;;;;;5003910;28;20308;-96
2021/07/31 10:35:07;;;;;;;2.33;1.30;;;20.20;99.90;;;;;;5001240;28;20242;-93
2021/07/31 10:37:34;;;;;;;2.03;1.40;;;20.00;99.90;;;;;;5002580;28;20213;-93
2021/07/31 10:40:08;;;;;;;1.70;1.60;;;20.60;99.90;;;;;;5001827;28;20222;-94
2021/07/31 10:42:52;;;;;;;2.23;1.87;;;20.50;99.90;;;;;;4987509;28;20213;-95
2021/07/31 10:45:30;;;;;;;2.00;1.43;;;21.10;99.90;;;;;;5004597;28;20233;-94
2021/07/31 10:48:22;;;;;;;2.73;1.67;;;21.00;99.90;;;;;;5002347;28;20254;-92
2021/07/31 10:50:48;;;;;;;5.23;1.73;;;21.60;99.90;;;;;;5004435;28;20581;-96
2021/07/31 10:53:14;;;;;;;2.37;1.30;;;21.80;99.90;;;;;;5008550;28;20645;-94
2021/07/31 10:55:43;;;;;;;3.70;1.47;;;21.50;99.90;;;;;;4990036;28;20523;-92
2021/07/31 10:58:14;;;;;;;3.47;1.60;;;21.50;99.90;;;;;;5002987;28;20603;-93
2021/07/31 11:00:41;;;;;;;3.27;1.53;;;22.10;99.90;;;;;;4999351;28;20215;-93
2021/07/31 11:03:23;;;;;;;1.50;1.40;;;21.70;99.90;;;;;;5001266;28;20222;-95
2021/07/31 11:05:51;;;;;;;2.33;1.70;;;20.90;99.90;;;;;;5000614;28;20447;-95
2021/07/31 11:08:33;;;;;;;2.63;1.73;;;20.80;99.90;;;;;;5004848;28;20188;-93
2021/07/31 11:11:14;;;;;;;1.80;1.07;;;20.90;99.90;;;;;;5004649;28;20214;-96
2021/07/31 11:13:46;;;;;;;1.60;1.17;;;20.50;99.90;;;;;;5007392;28;20692;-93
2021/07/31 11:16:17;;;;;;;3.70;1.47;;;20.50;99.90;;;;;;5002459;28;20377;-93
2021/07/31 11:18:47;;;;;;;3.13;1.60;;;20.60;99.90;;;;;;5000494;28;20219;-93
2021/07/31 11:21:14;;;;;;;5.53;2.70;;;21.00;99.90;;;;;;4999833;28;20234;-96
2021/07/31 11:24:04;;;;;;;1.80;1.47;;;21.20;99.90;;;;;;4998246;28;20322;-93
2021/07/31 11:26:39;;;;;;;1.83;0.80;;;21.10;99.90;;;;;;5002841;28;20219;-94
2021/07/31 11:29:13;;;;;;;2.23;1.37;;;20.30;99.90;;;;;;5006463;28;20364;-93
2021/07/31 11:31:41;;;;;;;1.43;1.33;;;20.50;99.90;;;;;;5002516;28;20557;-95
2021/07/31 11:34:09;;;;;;;2.80;1.63;;;21.00;99.90;;;;;;5001757;28;20215;-93
2021/07/31 11:36:38;;;;;;;2.00;1.43;;;20.40;99.90;;;;;;4999826;28;20207;-94
2021/07/31 11:39:06;;;;;;;4.10;1.47;;;21.10;99.90;;;;;;4999142;28;20778;-92
2021/07/31 11:41:40;;;;;;;2.60;1.83;;;21.40;99.90;;;;;;5000095;28;20852;-93
2021/07/31 11:44:07;;;;;;;1.10;0.97;;;20.90;99.90;;;;;;4986855;28;20205;-94
2021/07/31 11:46:44;;;;;;;5.40;1.97;;;20.20;99.90;;;;;;5004798;28;20179;-93
2021/07/31 11:49:12;;;;;;;3.20;1.47;;;20.40;99.90;;;;;;5002241;28;20333;-95
2021/07/31 11:51:43;;;;;;;1.83;1.57;;;21.00;99.90;;;;;;5001358;28;20235;-93
2021/07/31 11:54:09;;;;;;;2.07;1.27;;;21.60;99.90;;;;;;4985730;28;20216;-96
2021/07/31 11:56:37;;;;;;;2.80;1.30;;;21.40;99.90;;;;;;5022480;28;20301;-96
2021/07/31 11:59:05;;;;;;;0.97;0.97;;;21.60;99.90;;;;;;5007131;28;20178;-95
2021/07/31 12:01:31;;;;;;;2.87;1.40;;;21.60;99.90;;;;;;4987087;28;20589;-94
2021/07/31 12:03:57;;;;;;;3.40;1.33;;;21.10;99.90;;;;;;5001260;28;20217;-96
2021/07/31 12:06:42;;;;;;;3.43;2.07;;;21.00;99.90;;;;;;5006020;28;20214;-94
2021/07/31 12:09:28;;;;;;;2.57;1.60;;;21.40;99.90;;;;;;4991506;28;20230;-95
2021/07/31 12:11:58;;;;;;;3.93;1.90;;;21.10;99.90;;;;;;4988049;28;20215;-95
2021/07/31 12:14:30;;;;;;;1.60;1.30;;;21.10;99.90;;;;;;4978957;28;20233;-94
2021/07/31 12:17:16;;;;;;;2.33;1.20;;;20.80;99.90;;;;;;5005701;28;21054;-95
2021/07/31 12:19:43;;;;;;;2.33;1.93;;;20.80;99.90;;;;;;5019715;28;20218;-95
2021/07/31 12:22:12;;;;;;;2.77;1.80;;;20.50;99.90;;;;;;5015860;28;20226;-93
2021/07/31 12:24:38;;;;;;;3.20;1.30;;;20.10;99.90;;;;;;4994904;28;20223;-94
2021/07/31 12:27:04;;;;;;;0.90;0.90;;;20.50;99.90;;;;;;4985576;28;20856;-93
2021/07/31 12:29:39;;;;;;;2.90;2.00;;;20.30;99.90;;;;;;5007043;28;20211;-91
2021/07/31 12:32:24;;;;;;;4.90;2.60;;;20.40;99.90;;;;;;5006924;28;20573;-95
2021/07/31 12:34:51;;;;;;;4.23;2.13;;;20.40;99.90;;;;;;5005963;28;20222;-94
2021/07/31 12:37:17;;;;;;;1.07;1.00;;;21.10;99.90;;;;;;4989183;28;20214;-95
2021/07/31 12:39:43;;;;;;;3.23;2.00;;;21.30;99.90;;;;;;5021730;28;20578;-90
2021/07/31 12:42:09;;;;;;;1.23;1.10;;;21.20;99.90;;;;;;5019986;28;20223;-96
2021/07/31 12:44:36;;;;;;;4.53;2.13;;;20.60;99.90;;;;;;5003564;28;21272;-96
2021/07/31 12:47:05;;;;;;;4.77;2.07;;;20.50;99.90;;;;;;5003100;28;20760;-95
2021/07/31 12:49:33;;;;;;;2.43;1.70;;;20.80;99.90;;;;;;4987849;28;20245;-93